KISM/ISM METAR and TAF weather

Enter ICAO airport designator
Station Type Date Time Source
KISM METAR 2022/10/01 07:56 UTC NOAA

KISM 010756Z AUTO 00000KT 10SM OVC025 21/17 A2984 RMK AO2 SLP102 T02110167 PNO $


Station Type Date Time Source
KISM Decoded METAR 2022/10/01 07:56 UTC NOAA

Orlando, Kissimmee Municipal Airport, FL, United States (KISM) 28-17-23N 081-26-14W
Oct 01, 2022 - 03:56 AM EDT / 2022.10.01 0756 UTC
Wind: Calm:0
Visibility: 10 mile(s):0
Sky conditions: overcast
Temperature: 70.0 F (21.1 C)
Dew Point: 62.1 F (16.7 C)
Relative Humidity: 75%
Pressure (altimeter): 29.84 in. Hg (1010 hPa)
ob: KISM 010756Z AUTO 00000KT 10SM OVC025 21/17 A2984 RMK AO2 SLP102 T02110167 PNO
cycle: 8

Station Type Date Time Source
KISM TAF 2022/10/01 06:30 UTC NOAA

TAF KISM 010528Z 0106/0206 36004KT P6SM SCT020 BKN040
TEMPO 0106/0108 BKN020
FM011400 35004KT P6SM SKC
FM011800 28005KT P6SM SKC
FM020000 VRB04KT P6SM SKC

Example: see airport list